sensor_id;sensor_type;location;lat;lon;timestamp;pressure;altitude;pressure_sealevel;temperature;humidity
64827;BME280;51265;53.972;12.286;2023-10-19T00:00:37;99957.22;;;5.43;100.00
64827;BME280;51265;53.972;12.286;2023-10-19T00:03:13;99955.84;;;5.41;100.00
64827;BME280;51265;53.972;12.286;2023-10-19T00:05:40;99950.38;;;5.41;100.00
64827;BME280;51265;53.972;12.286;2023-10-19T00:08:07;99938.66;;;5.40;100.00
64827;BME280;51265;53.972;12.286;2023-10-19T00:10:49;99933.75;;;5.37;100.00
64827;BME280;51265;53.972;12.286;2023-10-19T00:13:42;99930.44;;;5.45;100.00
64827;BME280;51265;53.972;12.286;2023-10-19T00:16:10;99925.78;;;5.46;100.00
64827;BME280;51265;53.972;12.286;2023-10-19T00:18:49;99929.31;;;5.46;100.00
64827;BME280;51265;53.972;12.286;2023-10-19T00:21:16;99923.00;;;5.51;100.00
64827;BME280;51265;53.972;12.286;2023-10-19T00:23:53;99920.56;;;5.49;100.00
64827;BME280;51265;53.972;12.286;2023-10-19T00:26:26;99924.94;;;5.50;100.00
64827;BME280;51265;53.972;12.286;2023-10-19T00:28:59;99922.75;;;5.53;100.00
64827;BME280;51265;53.972;12.286;2023-10-19T00:31:31;99916.72;;;5.50;100.00
64827;BME280;51265;53.972;12.286;2023-10-19T00:34:00;99914.56;;;5.53;100.00
64827;BME280;51265;53.972;12.286;2023-10-19T00:36:27;99908.78;;;5.54;100.00
64827;BME280;51265;53.972;12.286;2023-10-19T00:38:56;99907.94;;;5.59;100.00
64827;BME280;51265;53.972;12.286;2023-10-19T00:41:25;99901.38;;;5.60;100.00
64827;BME280;51265;53.972;12.286;2023-10-19T00:43:59;99895.66;;;5.61;100.00
64827;BME280;51265;53.972;12.286;2023-10-19T00:46:31;99891.56;;;5.59;100.00
64827;BME280;51265;53.972;12.286;2023-10-19T00:49:11;99885.28;;;5.58;100.00
64827;BME280;51265;53.972;12.286;2023-10-19T00:51:52;99884.47;;;5.58;100.00
64827;BME280;51265;53.972;12.286;2023-10-19T00:54:25;99880.59;;;5.64;100.00
64827;BME280;51265;53.972;12.286;2023-10-19T00:56:57;99862.06;;;5.61;100.00
64827;BME280;51265;53.972;12.286;2023-10-19T00:59:30;99866.66;;;5.65;100.00
64827;BME280;51265;53.972;12.286;2023-10-19T01:01:57;99868.00;;;5.68;100.00
64827;BME280;51265;53.972;12.286;2023-10-19T01:04:43;99869.06;;;5.72;100.00
64827;BME280;51265;53.972;12.286;2023-10-19T01:07:10;99858.13;;;5.72;100.00
64827;BME280;51265;53.972;12.286;2023-10-19T01:09:39;99861.44;;;5.69;100.00
64827;BME280;51265;53.972;12.286;2023-10-19T01:12:06;99854.31;;;5.73;100.00
64827;BME280;51265;53.972;12.286;2023-10-19T01:15:01;99855.13;;;5.73;100.00
64827;BME280;51265;53.972;12.286;2023-10-19T01:17:32;99855.94;;;5.74;100.00
64827;BME280;51265;53.972;12.286;2023-10-19T01:20:12;99843.13;;;5.69;100.00
64827;BME280;51265;53.972;12.286;2023-10-19T01:23:07;99822.09;;;5.70;100.00
64827;BME280;51265;53.972;12.286;2023-10-19T01:25:56;99818.00;;;5.67;100.00
64827;BME280;51265;53.972;12.286;2023-10-19T01:28:26;99821.03;;;5.66;100.00
64827;BME280;51265;53.972;12.286;2023-10-19T01:31:09;99810.91;;;5.66;100.00
64827;BME280;51265;53.972;12.286;2023-10-19T01:33:43;99804.06;;;5.69;100.00
64827;BME280;51265;53.972;12.286;2023-10-19T01:36:11;99799.69;;;5.68;100.00
64827;BME280;51265;53.972;12.286;2023-10-19T01:38:38;99789.06;;;5.66;100.00
64827;BME280;51265;53.972;12.286;2023-10-19T01:41:06;99784.09;;;5.68;100.00
64827;BME280;51265;53.972;12.286;2023-10-19T01:43:48;99786.53;;;5.75;100.00
64827;BME280;51265;53.972;12.286;2023-10-19T01:46:16;99774.78;;;5.74;100.00
64827;BME280;51265;53.972;12.286;2023-10-19T01:48:49;99779.38;;;5.79;100.00
64827;BME280;51265;53.972;12.286;2023-10-19T01:51:20;99775.84;;;5.79;100.00
64827;BME280;51265;53.972;12.286;2023-10-19T01:53:47;99764.09;;;5.78;100.00
64827;BME280;51265;53.972;12.286;2023-10-19T01:56:15;99749.31;;;5.79;100.00
64827;BME280;51265;53.972;12.286;2023-10-19T01:58:45;99754.28;;;5.77;100.00
64827;BME280;51265;53.972;12.286;2023-10-19T02:01:16;99747.13;;;5.81;100.00
64827;BME280;51265;53.972;12.286;2023-10-19T02:03:48;99738.28;;;5.89;100.00
64827;BME280;51265;53.972;12.286;2023-10-19T02:06:19;99731.47;;;5.92;100.00
64827;BME280;51265;53.972;12.286;2023-10-19T02:08:50;99736.34;;;5.95;100.00
64827;BME280;51265;53.972;12.286;2023-10-19T02:11:21;99735.28;;;5.91;100.00
64827;BME280;51265;53.972;12.286;2023-10-19T02:13:49;99729.81;;;5.91;100.00
64827;BME280;51265;53.972;12.286;2023-10-19T02:16:16;99733.88;;;5.93;100.00
64827;BME280;51265;53.972;12.286;2023-10-19T02:18:46;99729.00;;;5.90;100.00
64827;BME280;51265;53.972;12.286;2023-10-19T02:21:12;99720.47;;;5.97;100.00
64827;BME280;51265;53.972;12.286;2023-10-19T02:23:40;99717.72;;;5.97;100.00
64827;BME280;51265;53.972;12.286;2023-10-19T02:26:09;99717.97;;;6.01;100.00
64827;BME280;51265;53.972;12.286;2023-10-19T02:28:39;99711.69;;;6.00;100.00
64827;BME280;51265;53.972;12.286;2023-10-19T02:31:06;99720.63;;;6.06;100.00
64827;BME280;51265;53.972;12.286;2023-10-19T02:33:42;99718.44;;;6.08;100.00
64827;BME280;51265;53.972;12.286;2023-10-19T02:36:13;99708.63;;;6.07;100.00
64827;BME280;51265;53.972;12.286;2023-10-19T02:38:46;99702.44;;;6.20;100.00
64827;BME280;51265;53.972;12.286;2023-10-19T02:41:19;99694.56;;;6.37;100.00
64827;BME280;51265;53.972;12.286;2023-10-19T02:55:44;99686.66;;;6.55;100.00
64827;BME280;51265;53.972;12.286;2023-10-19T02:58:11;99670.41;;;6.44;100.00
64827;BME280;51265;53.972;12.286;2023-10-19T03:00:39;99679.91;;;6.28;100.00
64827;BME280;51265;53.972;12.286;2023-10-19T03:03:06;99671.66;;;6.33;100.00
64827;BME280;51265;53.972;12.286;2023-10-19T03:05:32;99673.88;;;6.31;100.00
64827;BME280;51265;53.972;12.286;2023-10-19T03:08:03;99661.28;;;6.30;100.00
64827;BME280;51265;53.972;12.286;2023-10-19T03:10:32;99668.19;;;6.28;100.00
64827;BME280;51265;53.972;12.286;2023-10-19T03:13:08;99667.38;;;6.27;100.00
64827;BME280;51265;53.972;12.286;2023-10-19T03:15:35;99663.50;;;6.28;100.00
64827;BME280;51265;53.972;12.286;2023-10-19T03:18:02;99655.00;;;6.30;100.00
64827;BME280;51265;53.972;12.286;2023-10-19T03:20:30;99651.38;;;6.34;100.00
64827;BME280;51265;53.972;12.286;2023-10-19T03:22:59;99644.31;;;6.33;100.00
64827;BME280;51265;53.972;12.286;2023-10-19T03:25:28;99642.06;;;6.35;100.00
64827;BME280;51265;53.972;12.286;2023-10-19T03:28:13;99649.78;;;6.33;100.00
64827;BME280;51265;53.972;12.286;2023-10-19T03:30:42;99644.00;;;6.35;100.00
64827;BME280;51265;53.972;12.286;2023-10-19T03:33:08;99640.44;;;6.34;100.00
64827;BME280;51265;53.972;12.286;2023-10-19T03:35:38;99639.88;;;6.37;100.00
64827;BME280;51265;53.972;12.286;2023-10-19T03:38:08;99632.41;;;6.43;100.00
64827;BME280;51265;53.972;12.286;2023-10-19T03:40:41;99632.84;;;6.31;100.00
64827;BME280;51265;53.972;12.286;2023-10-19T03:43:07;99638.81;;;6.33;100.00
64827;BME280;51265;53.972;12.286;2023-10-19T03:45:44;99633.94;;;6.30;100.00
64827;BME280;51265;53.972;12.286;2023-10-19T03:48:20;99642.59;;;6.37;100.00
64827;BME280;51265;53.972;12.286;2023-10-19T03:50:53;99638.25;;;6.36;100.00
64827;BME280;51265;53.972;12.286;2023-10-19T03:53:22;99638.25;;;6.36;100.00
64827;BME280;51265;53.972;12.286;2023-10-19T03:55:49;99639.88;;;6.37;100.00
64827;BME280;51265;53.972;12.286;2023-10-19T03:58:20;99629.44;;;6.39;100.00
64827;BME280;51265;53.972;12.286;2023-10-19T04:00:47;99631.66;;;6.37;100.00
64827;BME280;51265;53.972;12.286;2023-10-19T04:03:15;99628.34;;;6.40;100.00
64827;BME280;51265;53.972;12.286;2023-10-19T04:05:44;99624.50;;;6.41;100.00
64827;BME280;51265;53.972;12.286;2023-10-19T04:08:13;99635.34;;;6.46;100.00
64827;BME280;51265;53.972;12.286;2023-10-19T04:10:46;99619.53;;;6.43;100.00
64827;BME280;51265;53.972;12.286;2023-10-19T04:13:33;99625.22;;;6.47;100.00
64827;BME280;51265;53.972;12.286;2023-10-19T04:15:59;99605.03;;;6.43;100.00
64827;BME280;51265;53.972;12.286;2023-10-19T04:18:25;99619.16;;;6.50;100.00
64827;BME280;51265;53.972;12.286;2023-10-19T04:20:51;99610.06;;;6.55;100.00
64827;BME280;51265;53.972;12.286;2023-10-19T04:23:21;99601.06;;;6.54;100.00
64827;BME280;51265;53.972;12.286;2023-10-19T04:25:48;99585.53;;;6.49;100.00
64827;BME280;51265;53.972;12.286;2023-10-19T04:28:14;99585.63;;;6.44;100.00
64827;BME280;51265;53.972;12.286;2023-10-19T04:30:41;99591.09;;;6.44;100.00
64827;BME280;51265;53.972;12.286;2023-10-19T04:33:07;99586.13;;;6.46;100.00
64827;BME280;51265;53.972;12.286;2023-10-19T04:35:36;99578.44;;;6.48;100.00
64827;BME280;51265;53.972;12.286;2023-10-19T04:38:06;99575.94;;;6.52;100.00
64827;BME280;51265;53.972;12.286;2023-10-19T04:40:32;99573.69;;;6.54;100.00
64827;BME280;51265;53.972;12.286;2023-10-19T04:43:02;99571.69;;;6.60;100.00
64827;BME280;51265;53.972;12.286;2023-10-19T04:45:30;99561.56;;;6.60;100.00
64827;BME280;51265;53.972;12.286;2023-10-19T04:47:56;99564.00;;;6.62;100.00
64827;BME280;51265;53.972;12.286;2023-10-19T04:50:23;99560.88;;;6.68;100.00
64827;BME280;51265;53.972;12.286;2023-10-19T04:52:49;99554.38;;;6.64;100.00
64827;BME280;51265;53.972;12.286;2023-10-19T04:55:16;99554.69;;;6.63;100.00
64827;BME280;51265;53.972;12.286;2023-10-19T04:57:42;99559.25;;;6.67;100.00
64827;BME280;51265;53.972;12.286;2023-10-19T05:00:09;99551.84;;;6.68;100.00
64827;BME280;51265;53.972;12.286;2023-10-19T05:02:39;99544.75;;;6.67;100.00
64827;BME280;51265;53.972;12.286;2023-10-19T05:05:05;99537.69;;;6.66;100.00
64827;BME280;51265;53.972;12.286;2023-10-19T05:07:32;99541.94;;;6.72;100.00
64827;BME280;51265;53.972;12.286;2023-10-19T05:09:59;99540.09;;;6.67;100.00
64827;BME280;51265;53.972;12.286;2023-10-19T05:12:25;99537.59;;;6.71;100.00
64827;BME280;51265;53.972;12.286;2023-10-19T05:14:52;99531.41;;;6.65;100.00
64827;BME280;51265;53.972;12.286;2023-10-19T05:17:18;99538.69;;;6.70;100.00
64827;BME280;51265;53.972;12.286;2023-10-19T05:19:47;99533.91;;;6.62;100.00
64827;BME280;51265;53.972;12.286;2023-10-19T05:22:13;99527.00;;;6.64;100.00
64827;BME280;51265;53.972;12.286;2023-10-19T05:24:39;99524.72;;;6.71;100.00
64827;BME280;51265;53.972;12.286;2023-10-19T05:27:05;99528.56;;;6.70;100.00
64827;BME280;51265;53.972;12.286;2023-10-19T05:29:32;99538.50;;;6.80;100.00
64827;BME280;51265;53.972;12.286;2023-10-19T05:32:02;99525.94;;;6.79;100.00
64827;BME280;51265;53.972;12.286;2023-10-19T05:34:29;99527.69;;;6.89;100.00
64827;BME280;51265;53.972;12.286;2023-10-19T05:36:58;99525.69;;;6.94;100.00
64827;BME280;51265;53.972;12.286;2023-10-19T05:39:25;99503.06;;;6.89;100.00
64827;BME280;51265;53.972;12.286;2023-10-19T05:41:55;99517.53;;;6.89;100.00
64827;BME280;51265;53.972;12.286;2023-10-19T05:44:21;99515.94;;;6.88;100.00
64827;BME280;51265;53.972;12.286;2023-10-19T05:46:51;99517.16;;;6.96;100.00
64827;BME280;51265;53.972;12.286;2023-10-19T05:49:17;99510.97;;;6.90;100.00
64827;BME280;51265;53.972;12.286;2023-10-19T05:51:43;99506.53;;;6.94;100.00
64827;BME280;51265;53.972;12.286;2023-10-19T05:54:10;99510.78;;;7.01;100.00
64827;BME280;51265;53.972;12.286;2023-10-19T05:56:38;99506.53;;;6.94;100.00
64827;BME280;51265;53.972;12.286;2023-10-19T05:59:04;99507.63;;;6.93;100.00
64827;BME280;51265;53.972;12.286;2023-10-19T06:01:32;99506.22;;;6.96;100.00
64827;BME280;51265;53.972;12.286;2023-10-19T06:03:58;99498.50;;;6.98;100.00
64827;BME280;51265;53.972;12.286;2023-10-19T06:06:24;99506.91;;;7.02;100.00
64827;BME280;51265;53.972;12.286;2023-10-19T06:08:51;99497.63;;;7.03;100.00
64827;BME280;51265;53.972;12.286;2023-10-19T06:11:20;99502.09;;;7.12;100.00
64827;BME280;51265;53.972;12.286;2023-10-19T06:13:46;99479.38;;;7.12;100.00
64827;BME280;51265;53.972;12.286;2023-10-19T06:16:14;99490.31;;;7.12;100.00
64827;BME280;51265;53.972;12.286;2023-10-19T06:18:40;99482.22;;;7.07;100.00
64827;BME280;51265;53.972;12.286;2023-10-19T06:21:06;99478.94;;;7.05;100.00
64827;BME280;51265;53.972;12.286;2023-10-19T06:23:33;99469.72;;;7.01;100.00
64827;BME280;51265;53.972;12.286;2023-10-19T06:25:59;99475.19;;;7.01;100.00
64827;BME280;51265;53.972;12.286;2023-10-19T06:28:30;99465.84;;;7.02;100.00
64827;BME280;51265;53.972;12.286;2023-10-19T06:31:00;99457.97;;;7.00;100.00
64827;BME280;51265;53.972;12.286;2023-10-19T06:33:26;99458.66;;;7.06;100.00
64827;BME280;51265;53.972;12.286;2023-10-19T06:35:52;99464.13;;;7.06;100.00
64827;BME280;51265;53.972;12.286;2023-10-19T06:38:19;99446.31;;;7.08;100.00
64827;BME280;51265;53.972;12.286;2023-10-19T06:40:47;99449.03;;;7.08;100.00
64827;BME280;51265;53.972;12.286;2023-10-19T06:43:13;99447.72;;;7.06;100.00
64827;BME280;51265;53.972;12.286;2023-10-19T06:45:39;99445.50;;;7.08;100.00
64827;BME280;51265;53.972;12.286;2023-10-19T06:48:05;99441.03;;;7.12;100.00
64827;BME280;51265;53.972;12.286;2023-10-19T06:50:33;99431.69;;;7.13;100.00
64827;BME280;51265;53.972;12.286;2023-10-19T06:52:59;99426.81;;;7.10;100.00
64827;BME280;51265;53.972;12.286;2023-10-19T06:55:25;99433.31;;;7.14;100.00
64827;BME280;51265;53.972;12.286;2023-10-19T06:57:54;99434.63;;;7.16;100.00
64827;BME280;51265;53.972;12.286;2023-10-19T07:00:25;99432.50;;;7.27;100.00
64827;BME280;51265;53.972;12.286;2023-10-19T07:02:55;99449.75;;;7.28;100.00
64827;BME280;51265;53.972;12.286;2023-10-19T07:05:22;99442.84;;;7.30;100.00
64827;BME280;51265;53.972;12.286;2023-10-19T07:07:52;99437.97;;;7.27;100.00
64827;BME280;51265;53.972;12.286;2023-10-19T07:10:20;99443.03;;;7.34;100.00
64827;BME280;51265;53.972;12.286;2023-10-19T07:12:48;99431.88;;;7.30;100.00
64827;BME280;51265;53.972;12.286;2023-10-19T07:15:14;99432.91;;;7.34;100.00
64827;BME280;51265;53.972;12.286;2023-10-19T07:17:41;99424.19;;;7.32;100.00
64827;BME280;51265;53.972;12.286;2023-10-19T07:20:09;99431.78;;;7.35;100.00
64827;BME280;51265;53.972;12.286;2023-10-19T07:22:48;99428.44;;;7.38;100.00
64827;BME280;51265;53.972;12.286;2023-10-19T07:25:14;99419.50;;;7.46;100.00
64827;BME280;51265;53.972;12.286;2023-10-19T07:27:40;99419.28;;;7.43;100.00
64827;BME280;51265;53.972;12.286;2023-10-19T07:30:09;99408.31;;;7.43;100.00
64827;BME280;51265;53.972;12.286;2023-10-19T07:32:35;99401.63;;;7.49;100.00
64827;BME280;51265;53.972;12.286;2023-10-19T07:35:02;99404.66;;;7.47;100.00
64827;BME280;51265;53.972;12.286;2023-10-19T07:37:28;99400.81;;;7.48;100.00
64827;BME280;51265;53.972;12.286;2023-10-19T07:39:54;99397.78;;;7.50;100.00
64827;BME280;51265;53.972;12.286;2023-10-19T07:42:24;99399.56;;;7.55;100.00
64827;BME280;51265;53.972;12.286;2023-10-19T07:44:50;99393.50;;;7.58;100.00
64827;BME280;51265;53.972;12.286;2023-10-19T07:47:16;99382.53;;;7.58;100.00
64827;BME280;51265;53.972;12.286;2023-10-19T07:49:42;99389.00;;;7.62;100.00
64827;BME280;51265;53.972;12.286;2023-10-19T07:56:15;99371.31;;;7.68;100.00
64827;BME280;51265;53.972;12.286;2023-10-19T07:58:41;99370.09;;;7.74;100.00
64827;BME280;51265;53.972;12.286;2023-10-19T08:01:08;99378.19;;;7.79;100.00
64827;BME280;51265;53.972;12.286;2023-10-19T08:03:34;99380.81;;;7.84;100.00
64827;BME280;51265;53.972;12.286;2023-10-19T08:06:01;99380.06;;;7.92;100.00
64827;BME280;51265;53.972;12.286;2023-10-19T08:08:27;99365.88;;;7.90;100.00
64827;BME280;51265;53.972;12.286;2023-10-19T08:11:00;99376.31;;;7.88;100.00
64827;BME280;51265;53.972;12.286;2023-10-19T08:13:27;99380.06;;;7.92;100.00
64827;BME280;51265;53.972;12.286;2023-10-19T08:15:53;99374.44;;;7.97;100.00
64827;BME280;51265;53.972;12.286;2023-10-19T08:18:20;99369.97;;;8.02;100.00
64827;BME280;51265;53.972;12.286;2023-10-19T08:20:46;99360.31;;;8.04;100.00
64827;BME280;51265;53.972;12.286;2023-10-19T08:23:12;99358.69;;;8.03;99.78
64827;BME280;51265;53.972;12.286;2023-10-19T08:25:44;99354.50;;;8.06;100.00
64827;BME280;51265;53.972;12.286;2023-10-19T08:28:10;99359.38;;;8.09;99.99
64827;BME280;51265;53.972;12.286;2023-10-19T08:30:37;99366.84;;;8.17;99.28
64827;BME280;51265;53.972;12.286;2023-10-19T08:33:03;99371.66;;;8.11;98.47
64827;BME280;51265;53.972;12.286;2023-10-19T08:35:29;99361.97;;;8.14;98.37
64827;BME280;51265;53.972;12.286;2023-10-19T08:37:57;99362.34;;;8.21;98.40
64827;BME280;51265;53.972;12.286;2023-10-19T08:40:26;99365.75;;;8.27;97.81
64827;BME280;51265;53.972;12.286;2023-10-19T08:42:54;99362.72;;;8.28;97.75
64827;BME280;51265;53.972;12.286;2023-10-19T08:45:21;99364.72;;;8.36;97.08
64827;BME280;51265;53.972;12.286;2023-10-19T08:47:56;99352.91;;;8.36;96.66
64827;BME280;51265;53.972;12.286;2023-10-19T08:50:27;99347.75;;;8.34;96.50
64827;BME280;51265;53.972;12.286;2023-10-19T08:52:56;99348.34;;;8.31;96.20
64827;BME280;51265;53.972;12.286;2023-10-19T08:55:23;99348.34;;;8.31;95.99
64827;BME280;51265;53.972;12.286;2023-10-19T08:57:50;99352.00;;;8.40;95.91
64827;BME280;51265;53.972;12.286;2023-10-19T09:00:18;99349.13;;;8.45;96.38
64827;BME280;51265;53.972;12.286;2023-10-19T09:02:48;99343.94;;;8.44;96.10
64827;BME280;51265;53.972;12.286;2023-10-19T09:05:14;99340.53;;;8.38;95.53
64827;BME280;51265;53.972;12.286;2023-10-19T09:07:49;99334.09;;;8.43;95.51
64827;BME280;51265;53.972;12.286;2023-10-19T09:10:22;99333.66;;;8.50;95.14
64827;BME280;51265;53.972;12.286;2023-10-19T09:13:05;99335.72;;;8.53;94.68
64827;BME280;51265;53.972;12.286;2023-10-19T09:15:39;99310.75;;;8.54;94.59
64827;BME280;51265;53.972;12.286;2023-10-19T09:18:22;99324.13;;;8.56;94.38
64827;BME280;51265;53.972;12.286;2023-10-19T09:20:50;99315.44;;;8.54;94.37
64827;BME280;51265;53.972;12.286;2023-10-19T09:23:21;99311.25;;;8.65;93.83
64827;BME280;51265;53.972;12.286;2023-10-19T09:25:49;99309.97;;;8.62;93.79
64827;BME280;51265;53.972;12.286;2023-10-19T09:28:15;99306.69;;;8.52;93.59
64827;BME280;51265;53.972;12.286;2023-10-19T09:30:42;99302.53;;;8.63;93.41
64827;BME280;51265;53.972;12.286;2023-10-19T09:33:09;99303.78;;;8.57;93.08
64827;BME280;51265;53.972;12.286;2023-10-19T09:35:36;99302.53;;;8.63;92.72
64827;BME280;51265;53.972;12.286;2023-10-19T09:38:04;99304.94;;;8.56;92.79
64827;BME280;51265;53.972;12.286;2023-10-19T09:40:32;99305.13;;;8.68;93.18
64827;BME280;51265;53.972;12.286;2023-10-19T09:43:04;99285.63;;;8.69;92.49
64827;BME280;51265;53.972;12.286;2023-10-19T09:45:36;99297.72;;;8.77;92.36
64827;BME280;51265;53.972;12.286;2023-10-19T09:48:08;99289.69;;;8.89;91.74
64827;BME280;51265;53.972;12.286;2023-10-19T09:50:34;99272.91;;;9.00;91.71
64827;BME280;51265;53.972;12.286;2023-10-19T09:53:02;99282.78;;;9.09;91.38
64827;BME280;51265;53.972;12.286;2023-10-19T09:55:37;99277.63;;;9.16;90.87
64827;BME280;51265;53.972;12.286;2023-10-19T09:58:19;99270.00;;;9.22;90.47
64827;BME280;51265;53.972;12.286;2023-10-19T10:00:48;99257.59;;;9.16;89.39
64827;BME280;51265;53.972;12.286;2023-10-19T10:06:11;99250.31;;;9.20;89.65
64827;BME280;51265;53.972;12.286;2023-10-19T10:08:39;99245.63;;;9.12;89.21
64827;BME280;51265;53.972;12.286;2023-10-19T10:11:27;99249.47;;;9.19;88.72
64827;BME280;51265;53.972;12.286;2023-10-19T10:13:56;99234.81;;;9.24;88.41
64827;BME280;51265;53.972;12.286;2023-10-19T10:16:27;99243.19;;;9.36;88.18
64827;BME280;51265;53.972;12.286;2023-10-19T10:18:59;99223.63;;;9.38;87.80
64827;BME280;51265;53.972;12.286;2023-10-19T10:21:27;99231.38;;;9.44;87.69
64827;BME280;51265;53.972;12.286;2023-10-19T10:23:59;99237.69;;;9.54;87.29
64827;BME280;51265;53.972;12.286;2023-10-19T10:26:28;99224.44;;;9.47;86.72
64827;BME280;51265;53.972;12.286;2023-10-19T10:29:10;99222.31;;;9.44;86.52
64827;BME280;51265;53.972;12.286;2023-10-19T10:31:42;99209.41;;;9.27;86.50
64827;BME280;51265;53.972;12.286;2023-10-19T10:34:10;99221.88;;;9.33;86.58
64827;BME280;51265;53.972;12.286;2023-10-19T10:36:59;99215.72;;;9.19;86.24
64827;BME280;51265;53.972;12.286;2023-10-19T10:39:30;99196.19;;;9.03;85.89
64827;BME280;51265;53.972;12.286;2023-10-19T10:41:57;99204.91;;;9.14;86.36
64827;BME280;51265;53.972;12.286;2023-10-19T10:44:41;99223.16;;;9.27;86.63
64827;BME280;51265;53.972;12.286;2023-10-19T10:47:12;99215.56;;;9.33;86.28
64827;BME280;51265;53.972;12.286;2023-10-19T10:50:00;99227.34;;;9.51;85.79
64827;BME280;51265;53.972;12.286;2023-10-19T10:52:33;99212.44;;;9.52;85.62
64827;BME280;51265;53.972;12.286;2023-10-19T10:55:11;99198.53;;;9.57;85.19
64827;BME280;51265;53.972;12.286;2023-10-19T10:57:38;99209.34;;;9.70;85.35
64827;BME280;51265;53.972;12.286;2023-10-19T11:00:09;99211.72;;;9.89;84.97
64827;BME280;51265;53.972;12.286;2023-10-19T11:02:45;99193.91;;;9.95;84.62
64827;BME280;51265;53.972;12.286;2023-10-19T11:05:13;99200.22;;;9.96;85.06
64827;BME280;51265;53.972;12.286;2023-10-19T11:08:02;99210.34;;;10.13;84.46
64827;BME280;51265;53.972;12.286;2023-10-19T11:10:30;99188.22;;;10.01;84.39
64827;BME280;51265;53.972;12.286;2023-10-19T11:13:02;99171.34;;;9.72;84.22
64827;BME280;51265;53.972;12.286;2023-10-19T11:15:29;99183.16;;;9.64;84.57
64827;BME280;51265;53.972;12.286;2023-10-19T11:17:56;99190.56;;;9.72;84.82
64827;BME280;51265;53.972;12.286;2023-10-19T11:20:24;99192.34;;;9.77;84.63
64827;BME280;51265;53.972;12.286;2023-10-19T11:22:52;99171.72;;;9.54;84.68
64827;BME280;51265;53.972;12.286;2023-10-19T11:25:20;99180.56;;;9.68;84.97
64827;BME280;51265;53.972;12.286;2023-10-19T11:27:47;99196.03;;;9.81;85.13
64827;BME280;51265;53.972;12.286;2023-10-19T11:30:24;99198.59;;;9.95;85.05
64827;BME280;51265;53.972;12.286;2023-10-19T11:32:50;99201.31;;;10.04;84.99
64827;BME280;51265;53.972;12.286;2023-10-19T11:35:19;99182.78;;;9.83;84.71
64827;BME280;51265;53.972;12.286;2023-10-19T11:37:49;99167.84;;;9.55;84.61
64827;BME280;51265;53.972;12.286;2023-10-19T11:40:16;99172.03;;;9.52;84.67
64827;BME280;51265;53.972;12.286;2023-10-19T11:42:42;99179.28;;;9.57;85.29
64827;BME280;51265;53.972;12.286;2023-10-19T11:45:09;99184.28;;;9.72;85.49
64827;BME280;51265;53.972;12.286;2023-10-19T11:47:37;99182.16;;;9.78;84.97
64827;BME280;51265;53.972;12.286;2023-10-19T11:50:04;99176.00;;;9.81;84.92
64827;BME280;51265;53.972;12.286;2023-10-19T11:52:31;99173.88;;;9.86;84.96
64827;BME280;51265;53.972;12.286;2023-10-19T11:54:57;99162.59;;;9.79;84.36
64827;BME280;51265;53.972;12.286;2023-10-19T11:57:24;99162.88;;;9.86;84.36
64827;BME280;51265;53.972;12.286;2023-10-19T11:59:51;99153.56;;;9.70;83.96
64827;BME280;51265;53.972;12.286;2023-10-19T12:02:20;99152.63;;;9.57;84.44
64827;BME280;51265;53.972;12.286;2023-10-19T12:04:47;99164.88;;;9.68;85.16
64827;BME280;51265;53.972;12.286;2023-10-19T12:07:13;99157.13;;;9.70;84.97
64827;BME280;51265;53.972;12.286;2023-10-19T12:09:39;99152.63;;;9.66;85.20
64827;BME280;51265;53.972;12.286;2023-10-19T12:12:07;99145.19;;;9.58;84.97
64827;BME280;51265;53.972;12.286;2023-10-19T12:14:36;99143.28;;;9.50;84.90
64827;BME280;51265;53.972;12.286;2023-10-19T12:17:02;99154.53;;;9.65;85.43
64827;BME280;51265;53.972;12.286;2023-10-19T12:19:29;99158.75;;;9.63;85.44
64827;BME280;51265;53.972;12.286;2023-10-19T12:21:56;99155.66;;;9.64;85.33
64827;BME280;51265;53.972;12.286;2023-10-19T12:24:23;99143.59;;;9.39;85.30
64827;BME280;51265;53.972;12.286;2023-10-19T12:26:49;99157.03;;;9.50;85.72
64827;BME280;51265;53.972;12.286;2023-10-19T12:29:17;99147.69;;;9.33;85.87
64827;BME280;51265;53.972;12.286;2023-10-19T12:35:52;99168.53;;;9.34;86.25
64827;BME280;51265;53.972;12.286;2023-10-19T12:38:23;99159.81;;;9.32;85.94
64827;BME280;51265;53.972;12.286;2023-10-19T12:40:50;99168.53;;;9.34;86.33
64827;BME280;51265;53.972;12.286;2023-10-19T12:43:20;99170.63;;;9.37;86.59
64827;BME280;51265;53.972;12.286;2023-10-19T12:45:49;99170.59;;;9.46;86.62
64827;BME280;51265;53.972;12.286;2023-10-19T12:48:23;99160.88;;;9.48;86.68
64827;BME280;51265;53.972;12.286;2023-10-19T12:50:56;99154.75;;;9.43;86.67
64827;BME280;51265;53.972;12.286;2023-10-19T12:53:22;99156.84;;;9.55;86.67
64827;BME280;51265;53.972;12.286;2023-10-19T12:55:51;99158.38;;;9.73;86.45
64827;BME280;51265;53.972;12.286;2023-10-19T12:58:18;99153.19;;;9.80;86.20
64827;BME280;51265;53.972;12.286;2023-10-19T13:00:45;99122.72;;;9.56;85.44
64827;BME280;51265;53.972;12.286;2023-10-19T13:03:14;99113.50;;;9.52;85.37
64827;BME280;51265;53.972;12.286;2023-10-19T13:05:40;99115.47;;;9.42;85.55
64827;BME280;51265;53.972;12.286;2023-10-19T13:08:08;99119.31;;;9.59;85.40
64827;BME280;51265;53.972;12.286;2023-10-19T13:10:35;99134.13;;;9.75;85.40
64827;BME280;51265;53.972;12.286;2023-10-19T13:13:05;99127.31;;;9.81;85.35
64827;BME280;51265;53.972;12.286;2023-10-19T13:15:35;99104.13;;;9.53;84.87
64827;BME280;51265;53.972;12.286;2023-10-19T13:18:02;99125.63;;;9.59;85.36
64827;BME280;51265;53.972;12.286;2023-10-19T13:20:29;99117.72;;;9.58;85.27
64827;BME280;51265;53.972;12.286;2023-10-19T13:23:07;99101.91;;;9.46;85.60
64827;BME280;51265;53.972;12.286;2023-10-19T13:25:38;99097.84;;;9.43;86.13
64827;BME280;51265;53.972;12.286;2023-10-19T13:28:11;99099.19;;;9.37;86.14